Markovo, Russia
Current Conditions -  °F | °C
As of 2:00 PM on Saturday 22 Nov 2014 (Local Time) from UHMA Reporting Station
Overcast Overcast  
Wind Chill: -6°   Ceiling: 8000
Heat Index: 10°   Visibility: 6mi
Dew Point:   Wind: 16mph
Humidity: 79%   Direction: 350°N
Pressure: 29.68"   Gusts: 22mph
Location:  64.68°N, 170.42°E
Report Text: UHMA 220200Z 35007G10MPS 9999 OVC080 M12/M15 Q1005 NOSIG RMKQFE750/1001
Loading
Personal Weather Stations






























Interactive Weather Map New forecast layout! Learn more

10-Day Weather Forecast

Advertisements
Track Severe Weather on mobile